sensor_id;sensor_type;location;lat;lon;timestamp;P1;P2;P0
62631;PMS5003;48703;51.248;-0.546;2022-09-27T00:02:05;0.53;0.34;
62631;PMS5003;48703;51.248;-0.546;2022-09-27T00:05:07;2.26;1.57;
62631;PMS5003;48703;51.248;-0.546;2022-09-27T00:08:08;1.20;1.20;
62631;PMS5003;48703;51.248;-0.546;2022-09-27T00:11:11;0.79;0.79;
62631;PMS5003;48703;51.248;-0.546;2022-09-27T00:14:12;0.51;0.51;
62631;PMS5003;48703;51.248;-0.546;2022-09-27T00:17:13;1.01;0.14;
62631;PMS5003;48703;51.248;-0.546;2022-09-27T00:20:14;2.59;1.94;
62631;PMS5003;48703;51.248;-0.546;2022-09-27T00:23:16;0.27;0.27;
62631;PMS5003;48703;51.248;-0.546;2022-09-27T00:26:17;1.06;0.96;
62631;PMS5003;48703;51.248;-0.546;2022-09-27T00:29:19;0.00;0.00;
62631;PMS5003;48703;51.248;-0.546;2022-09-27T00:32:21;0.26;0.26;
62631;PMS5003;48703;51.248;-0.546;2022-09-27T00:35:22;0.50;0.31;
62631;PMS5003;48703;51.248;-0.546;2022-09-27T00:38:24;1.34;0.44;
62631;PMS5003;48703;51.248;-0.546;2022-09-27T00:41:26;0.39;0.39;
62631;PMS5003;48703;51.248;-0.546;2022-09-27T00:45:01;0.97;0.00;
62631;PMS5003;48703;51.248;-0.546;2022-09-27T00:47:31;1.26;0.74;
62631;PMS5003;48703;51.248;-0.546;2022-09-27T00:50:31;0.99;0.47;
62631;PMS5003;48703;51.248;-0.546;2022-09-27T00:53:33;2.70;1.74;
62631;PMS5003;48703;51.248;-0.546;2022-09-27T00:56:34;3.86;3.09;
62631;PMS5003;48703;51.248;-0.546;2022-09-27T00:59:37;6.36;4.80;
62631;PMS5003;48703;51.248;-0.546;2022-09-27T01:02:40;3.86;3.50;
62631;PMS5003;48703;51.248;-0.546;2022-09-27T01:05:40;4.11;3.21;
62631;PMS5003;48703;51.248;-0.546;2022-09-27T01:08:40;1.87;1.87;
62631;PMS5003;48703;51.248;-0.546;2022-09-27T01:11:43;0.87;0.71;
62631;PMS5003;48703;51.248;-0.546;2022-09-27T01:14:48;0.47;0.13;
62631;PMS5003;48703;51.248;-0.546;2022-09-27T01:21:29;0.86;0.44;
62631;PMS5003;48703;51.248;-0.546;2022-09-27T01:23:52;0.37;0.36;
62631;PMS5003;48703;51.248;-0.546;2022-09-27T01:27:06;0.99;0.60;
62631;PMS5003;48703;51.248;-0.546;2022-09-27T01:29:57;0.01;0.01;
62631;PMS5003;48703;51.248;-0.546;2022-09-27T01:32:58;0.37;0.37;
62631;PMS5003;48703;51.248;-0.546;2022-09-27T01:35:59;1.30;0.50;
62631;PMS5003;48703;51.248;-0.546;2022-09-27T01:39:01;1.09;1.09;
62631;PMS5003;48703;51.248;-0.546;2022-09-27T01:41:59;0.19;0.19;
62631;PMS5003;48703;51.248;-0.546;2022-09-27T01:45:01;1.37;0.64;
62631;PMS5003;48703;51.248;-0.546;2022-09-27T01:48:03;1.41;0.56;
62631;PMS5003;48703;51.248;-0.546;2022-09-27T01:51:05;1.33;1.19;
62631;PMS5003;48703;51.248;-0.546;2022-09-27T01:54:05;1.17;0.47;
62631;PMS5003;48703;51.248;-0.546;2022-09-27T01:57:07;1.20;0.91;
62631;PMS5003;48703;51.248;-0.546;2022-09-27T02:00:09;2.27;0.96;
62631;PMS5003;48703;51.248;-0.546;2022-09-27T02:03:10;3.06;0.60;
62631;PMS5003;48703;51.248;-0.546;2022-09-27T02:06:12;0.97;0.49;
62631;PMS5003;48703;51.248;-0.546;2022-09-27T02:09:14;0.41;0.04;
62631;PMS5003;48703;51.248;-0.546;2022-09-27T02:12:16;0.09;0.09;
62631;PMS5003;48703;51.248;-0.546;2022-09-27T02:15:16;1.07;0.83;
62631;PMS5003;48703;51.248;-0.546;2022-09-27T02:18:20;0.81;0.81;
62631;PMS5003;48703;51.248;-0.546;2022-09-27T02:21:20;1.84;0.89;
62631;PMS5003;48703;51.248;-0.546;2022-09-27T02:24:23;0.90;0.50;
62631;PMS5003;48703;51.248;-0.546;2022-09-27T02:27:24;1.33;0.83;
62631;PMS5003;48703;51.248;-0.546;2022-09-27T02:30:25;1.20;0.66;
62631;PMS5003;48703;51.248;-0.546;2022-09-27T02:33:27;0.64;0.33;
62631;PMS5003;48703;51.248;-0.546;2022-09-27T02:36:28;0.46;0.46;
62631;PMS5003;48703;51.248;-0.546;2022-09-27T02:39:29;0.64;0.06;
62631;PMS5003;48703;51.248;-0.546;2022-09-27T02:42:31;0.94;0.60;
62631;PMS5003;48703;51.248;-0.546;2022-09-27T02:45:35;1.57;1.03;
62631;PMS5003;48703;51.248;-0.546;2022-09-27T02:48:35;1.27;0.77;
62631;PMS5003;48703;51.248;-0.546;2022-09-27T02:51:40;2.19;1.26;
62631;PMS5003;48703;51.248;-0.546;2022-09-27T02:54:39;0.39;0.39;
62631;PMS5003;48703;51.248;-0.546;2022-09-27T02:57:42;1.51;0.91;
62631;PMS5003;48703;51.248;-0.546;2022-09-27T03:00:44;0.61;0.61;
62631;PMS5003;48703;51.248;-0.546;2022-09-27T03:03:44;1.17;0.59;
62631;PMS5003;48703;51.248;-0.546;2022-09-27T03:06:44;0.34;0.13;
62631;PMS5003;48703;51.248;-0.546;2022-09-27T03:09:47;1.17;0.79;
62631;PMS5003;48703;51.248;-0.546;2022-09-27T03:12:48;1.43;0.43;
62631;PMS5003;48703;51.248;-0.546;2022-09-27T03:15:49;1.01;0.63;
62631;PMS5003;48703;51.248;-0.546;2022-09-27T03:18:50;1.91;1.24;
62631;PMS5003;48703;51.248;-0.546;2022-09-27T03:21:52;2.13;1.61;
62631;PMS5003;48703;51.248;-0.546;2022-09-27T03:24:54;1.99;1.83;
62631;PMS5003;48703;51.248;-0.546;2022-09-27T03:27:55;3.61;2.21;
62631;PMS5003;48703;51.248;-0.546;2022-09-27T03:30:57;1.54;1.34;
62631;PMS5003;48703;51.248;-0.546;2022-09-27T03:33:58;2.41;1.94;
62631;PMS5003;48703;51.248;-0.546;2022-09-27T03:37:00;0.93;0.86;
62631;PMS5003;48703;51.248;-0.546;2022-09-27T03:40:02;1.41;1.04;
62631;PMS5003;48703;51.248;-0.546;2022-09-27T03:43:04;1.10;0.53;
62631;PMS5003;48703;51.248;-0.546;2022-09-27T03:46:05;2.01;1.04;
62631;PMS5003;48703;51.248;-0.546;2022-09-27T03:49:07;0.43;0.43;
62631;PMS5003;48703;51.248;-0.546;2022-09-27T03:52:08;0.87;0.87;
62631;PMS5003;48703;51.248;-0.546;2022-09-27T03:55:10;0.87;0.61;
62631;PMS5003;48703;51.248;-0.546;2022-09-27T03:58:12;0.97;0.61;
62631;PMS5003;48703;51.248;-0.546;2022-09-27T04:01:14;0.37;0.26;
62631;PMS5003;48703;51.248;-0.546;2022-09-27T04:04:15;1.37;0.30;
62631;PMS5003;48703;51.248;-0.546;2022-09-27T04:07:17;0.21;0.21;
62631;PMS5003;48703;51.248;-0.546;2022-09-27T04:10:18;0.54;0.54;
62631;PMS5003;48703;51.248;-0.546;2022-09-27T04:13:20;1.43;0.97;
62631;PMS5003;48703;51.248;-0.546;2022-09-27T04:16:22;0.83;0.61;
62631;PMS5003;48703;51.248;-0.546;2022-09-27T04:19:23;0.67;0.13;
62631;PMS5003;48703;51.248;-0.546;2022-09-27T04:22:25;0.86;0.86;
62631;PMS5003;48703;51.248;-0.546;2022-09-27T04:25:27;1.34;0.91;
62631;PMS5003;48703;51.248;-0.546;2022-09-27T04:28:28;0.67;0.67;
62631;PMS5003;48703;51.248;-0.546;2022-09-27T04:31:30;1.39;0.96;
62631;PMS5003;48703;51.248;-0.546;2022-09-27T04:34:32;0.97;0.97;
62631;PMS5003;48703;51.248;-0.546;2022-09-27T04:37:33;0.56;0.56;
62631;PMS5003;48703;51.248;-0.546;2022-09-27T04:40:35;1.04;0.54;
62631;PMS5003;48703;51.248;-0.546;2022-09-27T04:43:37;1.47;0.90;
62631;PMS5003;48703;51.248;-0.546;2022-09-27T04:46:38;1.73;0.67;
62631;PMS5003;48703;51.248;-0.546;2022-09-27T04:49:40;0.34;0.34;
62631;PMS5003;48703;51.248;-0.546;2022-09-27T04:52:42;1.06;1.06;
62631;PMS5003;48703;51.248;-0.546;2022-09-27T04:55:43;1.14;0.63;
62631;PMS5003;48703;51.248;-0.546;2022-09-27T04:58:45;0.63;0.06;
62631;PMS5003;48703;51.248;-0.546;2022-09-27T05:01:47;0.39;0.39;
62631;PMS5003;48703;51.248;-0.546;2022-09-27T05:04:48;0.33;0.26;
62631;PMS5003;48703;51.248;-0.546;2022-09-27T05:07:50;1.36;0.59;
62631;PMS5003;48703;51.248;-0.546;2022-09-27T05:10:52;1.70;0.84;
62631;PMS5003;48703;51.248;-0.546;2022-09-27T05:13:54;1.00;1.00;
62631;PMS5003;48703;51.248;-0.546;2022-09-27T05:16:55;0.00;0.00;
62631;PMS5003;48703;51.248;-0.546;2022-09-27T05:19:56;2.33;0.69;
62631;PMS5003;48703;51.248;-0.546;2022-09-27T05:22:58;1.13;0.96;
62631;PMS5003;48703;51.248;-0.546;2022-09-27T05:26:02;2.00;0.61;
62631;PMS5003;48703;51.248;-0.546;2022-09-27T05:29:01;0.89;0.64;
62631;PMS5003;48703;51.248;-0.546;2022-09-27T05:32:03;1.19;0.74;
62631;PMS5003;48703;51.248;-0.546;2022-09-27T05:35:05;1.73;1.30;
62631;PMS5003;48703;51.248;-0.546;2022-09-27T05:38:06;0.91;0.49;
62631;PMS5003;48703;51.248;-0.546;2022-09-27T05:41:08;1.06;0.24;
62631;PMS5003;48703;51.248;-0.546;2022-09-27T05:44:10;0.61;0.59;
62631;PMS5003;48703;51.248;-0.546;2022-09-27T05:47:11;1.70;1.07;
62631;PMS5003;48703;51.248;-0.546;2022-09-27T05:50:13;0.31;0.31;
62631;PMS5003;48703;51.248;-0.546;2022-09-27T05:53:14;0.90;0.90;
62631;PMS5003;48703;51.248;-0.546;2022-09-27T05:56:16;0.33;0.33;
62631;PMS5003;48703;51.248;-0.546;2022-09-27T05:59:17;0.37;0.37;
62631;PMS5003;48703;51.248;-0.546;2022-09-27T06:02:19;0.83;0.64;
62631;PMS5003;48703;51.248;-0.546;2022-09-27T06:05:21;1.63;1.06;
62631;PMS5003;48703;51.248;-0.546;2022-09-27T06:08:22;1.41;0.77;
62631;PMS5003;48703;51.248;-0.546;2022-09-27T06:11:24;1.83;0.84;
62631;PMS5003;48703;51.248;-0.546;2022-09-27T06:14:26;1.20;0.09;
62631;PMS5003;48703;51.248;-0.546;2022-09-27T06:17:27;1.16;0.86;
62631;PMS5003;48703;51.248;-0.546;2022-09-27T06:20:29;1.81;1.37;
62631;PMS5003;48703;51.248;-0.546;2022-09-27T06:23:31;0.51;0.47;
62631;PMS5003;48703;51.248;-0.546;2022-09-27T06:26:32;0.41;0.03;
62631;PMS5003;48703;51.248;-0.546;2022-09-27T06:29:34;0.93;0.93;
62631;PMS5003;48703;51.248;-0.546;2022-09-27T06:32:36;0.93;0.33;
62631;PMS5003;48703;51.248;-0.546;2022-09-27T06:35:38;1.16;0.79;
62631;PMS5003;48703;51.248;-0.546;2022-09-27T06:38:39;2.53;1.91;
62631;PMS5003;48703;51.248;-0.546;2022-09-27T06:41:41;0.99;0.77;
62631;PMS5003;48703;51.248;-0.546;2022-09-27T06:44:42;1.39;1.39;
62631;PMS5003;48703;51.248;-0.546;2022-09-27T06:47:44;2.33;1.11;
62631;PMS5003;48703;51.248;-0.546;2022-09-27T06:50:46;1.94;1.94;
62631;PMS5003;48703;51.248;-0.546;2022-09-27T06:53:47;2.30;0.67;
62631;PMS5003;48703;51.248;-0.546;2022-09-27T06:56:49;2.81;2.20;
62631;PMS5003;48703;51.248;-0.546;2022-09-27T06:59:50;1.90;0.90;
62631;PMS5003;48703;51.248;-0.546;2022-09-27T07:02:53;0.90;0.90;
62631;PMS5003;48703;51.248;-0.546;2022-09-27T07:05:54;2.24;1.61;
62631;PMS5003;48703;51.248;-0.546;2022-09-27T07:08:55;1.96;1.43;
62631;PMS5003;48703;51.248;-0.546;2022-09-27T07:11:57;1.70;1.70;
62631;PMS5003;48703;51.248;-0.546;2022-09-27T07:14:59;2.20;1.83;
62631;PMS5003;48703;51.248;-0.546;2022-09-27T07:18:00;1.84;1.60;
62631;PMS5003;48703;51.248;-0.546;2022-09-27T07:21:02;3.43;2.54;
62631;PMS5003;48703;51.248;-0.546;2022-09-27T07:24:04;3.39;2.06;
62631;PMS5003;48703;51.248;-0.546;2022-09-27T07:27:05;4.20;2.24;
62631;PMS5003;48703;51.248;-0.546;2022-09-27T07:30:07;2.57;0.83;
62631;PMS5003;48703;51.248;-0.546;2022-09-27T07:33:08;3.46;2.53;
62631;PMS5003;48703;51.248;-0.546;2022-09-27T07:36:11;1.84;1.29;
62631;PMS5003;48703;51.248;-0.546;2022-09-27T07:39:12;2.77;1.64;
62631;PMS5003;48703;51.248;-0.546;2022-09-27T07:42:13;3.50;3.04;
62631;PMS5003;48703;51.248;-0.546;2022-09-27T07:45:15;2.59;2.41;
62631;PMS5003;48703;51.248;-0.546;2022-09-27T07:48:17;4.57;2.54;
62631;PMS5003;48703;51.248;-0.546;2022-09-27T07:51:18;4.90;3.41;
62631;PMS5003;48703;51.248;-0.546;2022-09-27T07:54:20;2.96;2.04;
62631;PMS5003;48703;51.248;-0.546;2022-09-27T07:57:21;3.74;3.06;
62631;PMS5003;48703;51.248;-0.546;2022-09-27T08:00:23;3.01;2.20;
62631;PMS5003;48703;51.248;-0.546;2022-09-27T08:03:24;3.00;2.70;
62631;PMS5003;48703;51.248;-0.546;2022-09-27T08:06:26;1.70;1.53;
62631;PMS5003;48703;51.248;-0.546;2022-09-27T08:09:28;3.06;2.03;
62631;PMS5003;48703;51.248;-0.546;2022-09-27T08:12:29;2.81;1.77;
62631;PMS5003;48703;51.248;-0.546;2022-09-27T08:15:32;3.16;2.61;
62631;PMS5003;48703;51.248;-0.546;2022-09-27T08:18:32;2.51;2.46;
62631;PMS5003;48703;51.248;-0.546;2022-09-27T08:21:34;2.40;1.59;
62631;PMS5003;48703;51.248;-0.546;2022-09-27T08:24:35;3.44;3.00;
62631;PMS5003;48703;51.248;-0.546;2022-09-27T08:27:37;1.70;1.49;
62631;PMS5003;48703;51.248;-0.546;2022-09-27T08:30:38;3.39;2.13;
62631;PMS5003;48703;51.248;-0.546;2022-09-27T08:33:40;3.43;2.21;
62631;PMS5003;48703;51.248;-0.546;2022-09-27T08:36:41;4.03;3.62;
62631;PMS5003;48703;51.248;-0.546;2022-09-27T08:39:42;2.69;2.51;
62631;PMS5003;48703;51.248;-0.546;2022-09-27T08:42:45;3.73;2.67;
62631;PMS5003;48703;51.248;-0.546;2022-09-27T08:45:52;2.46;2.46;
62631;PMS5003;48703;51.248;-0.546;2022-09-27T08:48:48;3.60;1.70;
62631;PMS5003;48703;51.248;-0.546;2022-09-27T08:51:49;2.39;1.96;
62631;PMS5003;48703;51.248;-0.546;2022-09-27T08:54:50;2.60;1.20;
62631;PMS5003;48703;51.248;-0.546;2022-09-27T08:57:53;3.89;2.93;
62631;PMS5003;48703;51.248;-0.546;2022-09-27T09:00:54;3.64;2.83;
62631;PMS5003;48703;51.248;-0.546;2022-09-27T09:03:55;3.76;2.97;
62631;PMS5003;48703;51.248;-0.546;2022-09-27T09:06:58;1.76;1.73;
62631;PMS5003;48703;51.248;-0.546;2022-09-27T09:10:00;3.06;2.41;
62631;PMS5003;48703;51.248;-0.546;2022-09-27T09:13:00;3.76;1.87;
62631;PMS5003;48703;51.248;-0.546;2022-09-27T09:16:03;4.41;3.68;
62631;PMS5003;48703;51.248;-0.546;2022-09-27T09:19:06;2.73;2.71;
62631;PMS5003;48703;51.248;-0.546;2022-09-27T09:22:06;3.96;2.26;
62631;PMS5003;48703;51.248;-0.546;2022-09-27T09:25:09;2.41;1.97;
62631;PMS5003;48703;51.248;-0.546;2022-09-27T09:28:12;3.30;2.77;
62631;PMS5003;48703;51.248;-0.546;2022-09-27T09:31:10;2.60;1.96;
62631;PMS5003;48703;51.248;-0.546;2022-09-27T09:34:12;3.04;2.49;
62631;PMS5003;48703;51.248;-0.546;2022-09-27T09:37:13;3.16;3.09;
62631;PMS5003;48703;51.248;-0.546;2022-09-27T09:40:15;3.54;3.06;
62631;PMS5003;48703;51.248;-0.546;2022-09-27T09:43:15;3.24;2.69;
62631;PMS5003;48703;51.248;-0.546;2022-09-27T09:46:17;3.60;2.74;
62631;PMS5003;48703;51.248;-0.546;2022-09-27T09:49:18;3.41;3.03;
62631;PMS5003;48703;51.248;-0.546;2022-09-27T09:52:19;4.16;3.65;
62631;PMS5003;48703;51.248;-0.546;2022-09-27T09:55:21;4.53;3.40;
62631;PMS5003;48703;51.248;-0.546;2022-09-27T09:58:23;2.46;2.24;
62631;PMS5003;48703;51.248;-0.546;2022-09-27T10:01:24;5.64;4.51;
62631;PMS5003;48703;51.248;-0.546;2022-09-27T10:04:25;4.57;3.26;
62631;PMS5003;48703;51.248;-0.546;2022-09-27T10:07:26;5.09;3.20;
62631;PMS5003;48703;51.248;-0.546;2022-09-27T10:10:27;3.76;2.84;
62631;PMS5003;48703;51.248;-0.546;2022-09-27T10:13:29;2.86;2.41;
62631;PMS5003;48703;51.248;-0.546;2022-09-27T10:16:30;3.01;1.99;
62631;PMS5003;48703;51.248;-0.546;2022-09-27T10:19:32;3.56;2.46;
62631;PMS5003;48703;51.248;-0.546;2022-09-27T10:22:34;3.49;1.87;
62631;PMS5003;48703;51.248;-0.546;2022-09-27T10:25:44;2.47;2.19;
62631;PMS5003;48703;51.248;-0.546;2022-09-27T10:28:37;2.29;1.97;
62631;PMS5003;48703;51.248;-0.546;2022-09-27T10:31:38;2.09;1.33;
62631;PMS5003;48703;51.248;-0.546;2022-09-27T10:34:40;4.36;3.77;
62631;PMS5003;48703;51.248;-0.546;2022-09-27T10:37:41;2.14;1.36;
62631;PMS5003;48703;51.248;-0.546;2022-09-27T10:40:42;2.07;0.94;
62631;PMS5003;48703;51.248;-0.546;2022-09-27T10:43:44;1.43;1.16;
62631;PMS5003;48703;51.248;-0.546;2022-09-27T10:46:46;2.07;2.07;
62631;PMS5003;48703;51.248;-0.546;2022-09-27T10:49:47;2.56;1.17;
62631;PMS5003;48703;51.248;-0.546;2022-09-27T10:52:49;3.23;2.26;
62631;PMS5003;48703;51.248;-0.546;2022-09-27T10:55:50;2.91;1.80;
62631;PMS5003;48703;51.248;-0.546;2022-09-27T10:58:52;1.51;1.16;
62631;PMS5003;48703;51.248;-0.546;2022-09-27T11:01:53;1.84;1.84;
62631;PMS5003;48703;51.248;-0.546;2022-09-27T11:05:04;1.61;0.90;
62631;PMS5003;48703;51.248;-0.546;2022-09-27T11:07:57;1.79;1.49;
62631;PMS5003;48703;51.248;-0.546;2022-09-27T11:11:00;1.16;1.04;
62631;PMS5003;48703;51.248;-0.546;2022-09-27T11:14:00;1.30;0.87;
62631;PMS5003;48703;51.248;-0.546;2022-09-27T11:17:05;1.09;1.06;
62631;PMS5003;48703;51.248;-0.546;2022-09-27T11:20:07;0.54;0.43;
62631;PMS5003;48703;51.248;-0.546;2022-09-27T11:23:15;2.17;1.41;
62631;PMS5003;48703;51.248;-0.546;2022-09-27T11:26:10;2.19;1.29;
62631;PMS5003;48703;51.248;-0.546;2022-09-27T11:29:11;1.43;1.43;
62631;PMS5003;48703;51.248;-0.546;2022-09-27T11:32:12;0.63;0.63;
62631;PMS5003;48703;51.248;-0.546;2022-09-27T11:35:17;0.61;0.61;
62631;PMS5003;48703;51.248;-0.546;2022-09-27T11:38:16;1.06;1.06;
62631;PMS5003;48703;51.248;-0.546;2022-09-27T11:41:18;1.47;1.47;
62631;PMS5003;48703;51.248;-0.546;2022-09-27T11:44:18;1.26;1.07;
62631;PMS5003;48703;51.248;-0.546;2022-09-27T11:47:17;1.16;0.77;
62631;PMS5003;48703;51.248;-0.546;2022-09-27T11:50:20;2.23;1.26;
62631;PMS5003;48703;51.248;-0.546;2022-09-27T11:53:22;1.63;0.73;
62631;PMS5003;48703;51.248;-0.546;2022-09-27T11:56:24;1.19;0.93;
62631;PMS5003;48703;51.248;-0.546;2022-09-27T11:59:30;2.47;1.70;
62631;PMS5003;48703;51.248;-0.546;2022-09-27T12:02:29;1.16;0.60;
62631;PMS5003;48703;51.248;-0.546;2022-09-27T12:05:26;0.50;0.36;
62631;PMS5003;48703;51.248;-0.546;2022-09-27T12:08:31;2.16;1.34;
62631;PMS5003;48703;51.248;-0.546;2022-09-27T12:11:30;1.26;1.16;
62631;PMS5003;48703;51.248;-0.546;2022-09-27T12:14:32;1.97;1.71;
62631;PMS5003;48703;51.248;-0.546;2022-09-27T12:17:32;1.30;1.01;
62631;PMS5003;48703;51.248;-0.546;2022-09-27T12:20:33;3.14;1.71;
62631;PMS5003;48703;51.248;-0.546;2022-09-27T12:23:35;3.26;1.44;
62631;PMS5003;48703;51.248;-0.546;2022-09-27T12:26:36;0.94;0.94;
62631;PMS5003;48703;51.248;-0.546;2022-09-27T12:29:37;1.44;1.10;
62631;PMS5003;48703;51.248;-0.546;2022-09-27T12:32:42;1.50;0.94;
62631;PMS5003;48703;51.248;-0.546;2022-09-27T12:35:42;2.83;1.66;
62631;PMS5003;48703;51.248;-0.546;2022-09-27T12:38:43;5.99;5.36;
62631;PMS5003;48703;51.248;-0.546;2022-09-27T12:41:45;2.86;0.61;
62631;PMS5003;48703;51.248;-0.546;2022-09-27T12:44:45;1.23;0.90;
62631;PMS5003;48703;51.248;-0.546;2022-09-27T12:47:50;4.11;2.09;
62631;PMS5003;48703;51.248;-0.546;2022-09-27T12:50:50;2.07;1.20;
62631;PMS5003;48703;51.248;-0.546;2022-09-27T12:53:54;0.69;0.60;
62631;PMS5003;48703;51.248;-0.546;2022-09-27T12:56:53;0.94;0.94;
62631;PMS5003;48703;51.248;-0.546;2022-09-27T12:59:58;1.30;0.87;
62631;PMS5003;48703;51.248;-0.546;2022-09-27T13:03:00;1.39;1.01;
62631;PMS5003;48703;51.248;-0.546;2022-09-27T13:06:00;2.63;1.46;
62631;PMS5003;48703;51.248;-0.546;2022-09-27T13:09:06;1.83;0.33;
62631;PMS5003;48703;51.248;-0.546;2022-09-27T13:12:00;3.09;1.60;
62631;PMS5003;48703;51.248;-0.546;2022-09-27T13:15:01;1.93;1.11;
62631;PMS5003;48703;51.248;-0.546;2022-09-27T13:18:02;0.91;0.70;
62631;PMS5003;48703;51.248;-0.546;2022-09-27T13:21:03;2.31;2.27;
62631;PMS5003;48703;51.248;-0.546;2022-09-27T13:24:16;2.20;1.77;
62631;PMS5003;48703;51.248;-0.546;2022-09-27T13:27:26;2.50;1.86;
62631;PMS5003;48703;51.248;-0.546;2022-09-27T13:30:42;2.63;1.81;
62631;PMS5003;48703;51.248;-0.546;2022-09-27T13:33:31;3.50;1.46;
62631;PMS5003;48703;51.248;-0.546;2022-09-27T13:36:27;2.60;2.60;
62631;PMS5003;48703;51.248;-0.546;2022-09-27T13:39:15;2.19;1.76;
62631;PMS5003;48703;51.248;-0.546;2022-09-27T13:42:18;3.29;1.40;
62631;PMS5003;48703;51.248;-0.546;2022-09-27T13:45:17;1.71;1.40;
62631;PMS5003;48703;51.248;-0.546;2022-09-27T13:48:17;1.40;0.86;
62631;PMS5003;48703;51.248;-0.546;2022-09-27T13:51:20;1.26;1.26;
62631;PMS5003;48703;51.248;-0.546;2022-09-27T13:54:53;3.77;2.51;
62631;PMS5003;48703;51.248;-0.546;2022-09-27T13:57:40;2.50;1.99;
62631;PMS5003;48703;51.248;-0.546;2022-09-27T14:00:23;2.17;1.99;
62631;PMS5003;48703;51.248;-0.546;2022-09-27T14:03:25;4.89;2.63;
62631;PMS5003;48703;51.248;-0.546;2022-09-27T14:06:28;2.24;1.50;
62631;PMS5003;48703;51.248;-0.546;2022-09-27T14:09:29;2.99;1.40;
62631;PMS5003;48703;51.248;-0.546;2022-09-27T14:12:31;2.01;1.56;
62631;PMS5003;48703;51.248;-0.546;2022-09-27T14:15:31;3.19;1.97;
62631;PMS5003;48703;51.248;-0.546;2022-09-27T14:18:32;2.90;2.23;
62631;PMS5003;48703;51.248;-0.546;2022-09-27T14:21:35;2.01;1.70;
62631;PMS5003;48703;51.248;-0.546;2022-09-27T14:24:43;2.33;2.33;
62631;PMS5003;48703;51.248;-0.546;2022-09-27T14:27:37;4.60;4.00;
62631;PMS5003;48703;51.248;-0.546;2022-09-27T14:30:39;4.31;2.94;
62631;PMS5003;48703;51.248;-0.546;2022-09-27T14:33:40;3.67;2.71;
62631;PMS5003;48703;51.248;-0.546;2022-09-27T14:36:42;1.96;1.96;
62631;PMS5003;48703;51.248;-0.546;2022-09-27T14:39:43;3.29;1.60;
62631;PMS5003;48703;51.248;-0.546;2022-09-27T14:42:45;1.43;0.76;
62631;PMS5003;48703;51.248;-0.546;2022-09-27T14:45:48;1.74;1.47;
62631;PMS5003;48703;51.248;-0.546;2022-09-27T14:48:48;2.41;1.47;
62631;PMS5003;48703;51.248;-0.546;2022-09-27T14:51:50;1.83;1.71;
62631;PMS5003;48703;51.248;-0.546;2022-09-27T14:54:59;2.34;2.34;
62631;PMS5003;48703;51.248;-0.546;2022-09-27T14:57:53;2.14;1.67;
62631;PMS5003;48703;51.248;-0.546;2022-09-27T15:00:54;1.83;0.99;
62631;PMS5003;48703;51.248;-0.546;2022-09-27T15:04:01;1.86;1.86;
62631;PMS5003;48703;51.248;-0.546;2022-09-27T15:06:57;2.60;2.34;
62631;PMS5003;48703;51.248;-0.546;2022-09-27T15:09:59;2.79;2.09;
62631;PMS5003;48703;51.248;-0.546;2022-09-27T15:13:01;2.93;2.33;
62631;PMS5003;48703;51.248;-0.546;2022-09-27T15:16:05;2.64;2.21;
62631;PMS5003;48703;51.248;-0.546;2022-09-27T15:19:05;2.07;2.07;
62631;PMS5003;48703;51.248;-0.546;2022-09-27T15:22:21;2.06;1.29;
62631;PMS5003;48703;51.248;-0.546;2022-09-27T15:25:14;2.73;1.79;
62631;PMS5003;48703;51.248;-0.546;2022-09-27T15:28:12;2.00;1.67;
62631;PMS5003;48703;51.248;-0.546;2022-09-27T15:31:10;1.94;1.16;
62631;PMS5003;48703;51.248;-0.546;2022-09-27T15:34:14;1.70;1.59;
62631;PMS5003;48703;51.248;-0.546;2022-09-27T15:37:23;2.04;1.70;
62631;PMS5003;48703;51.248;-0.546;2022-09-27T15:41:20;1.44;1.44;
62631;PMS5003;48703;51.248;-0.546;2022-09-27T15:43:17;3.50;2.04;
62631;PMS5003;48703;51.248;-0.546;2022-09-27T15:46:24;2.96;1.39;
62631;PMS5003;48703;51.248;-0.546;2022-09-27T15:49:21;2.07;2.03;
62631;PMS5003;48703;51.248;-0.546;2022-09-27T15:52:38;2.80;2.30;
62631;PMS5003;48703;51.248;-0.546;2022-09-27T15:55:23;2.09;2.01;
62631;PMS5003;48703;51.248;-0.546;2022-09-27T15:58:24;2.56;2.56;
62631;PMS5003;48703;51.248;-0.546;2022-09-27T16:01:26;2.96;2.16;
62631;PMS5003;48703;51.248;-0.546;2022-09-27T16:04:27;3.30;2.03;
62631;PMS5003;48703;51.248;-0.546;2022-09-27T16:07:29;3.84;3.00;
62631;PMS5003;48703;51.248;-0.546;2022-09-27T16:10:32;2.71;1.96;
62631;PMS5003;48703;51.248;-0.546;2022-09-27T16:13:32;3.10;2.47;
62631;PMS5003;48703;51.248;-0.546;2022-09-27T16:16:34;3.90;2.86;
62631;PMS5003;48703;51.248;-0.546;2022-09-27T16:19:35;2.83;2.83;
62631;PMS5003;48703;51.248;-0.546;2022-09-27T16:22:37;3.31;2.90;
62631;PMS5003;48703;51.248;-0.546;2022-09-27T16:25:38;2.27;1.76;
62631;PMS5003;48703;51.248;-0.546;2022-09-27T16:28:40;2.86;2.30;
62631;PMS5003;48703;51.248;-0.546;2022-09-27T16:31:42;3.09;2.67;
62631;PMS5003;48703;51.248;-0.546;2022-09-27T16:34:43;3.01;2.34;
62631;PMS5003;48703;51.248;-0.546;2022-09-27T16:37:45;3.20;3.20;
62631;PMS5003;48703;51.248;-0.546;2022-09-27T16:40:46;2.80;2.30;
62631;PMS5003;48703;51.248;-0.546;2022-09-27T16:43:48;2.46;2.21;
62631;PMS5003;48703;51.248;-0.546;2022-09-27T16:46:49;3.04;2.57;
62631;PMS5003;48703;51.248;-0.546;2022-09-27T16:49:51;2.34;2.27;
62631;PMS5003;48703;51.248;-0.546;2022-09-27T16:52:53;3.20;3.20;
62631;PMS5003;48703;51.248;-0.546;2022-09-27T16:55:57;3.61;2.99;
62631;PMS5003;48703;51.248;-0.546;2022-09-27T16:58:55;4.34;3.74;
62631;PMS5003;48703;51.248;-0.546;2022-09-27T17:01:57;2.96;2.53;
62631;PMS5003;48703;51.248;-0.546;2022-09-27T17:04:59;3.37;2.43;
62631;PMS5003;48703;51.248;-0.546;2022-09-27T17:08:00;3.79;3.43;
62631;PMS5003;48703;51.248;-0.546;2022-09-27T17:11:02;3.14;1.89;
62631;PMS5003;48703;51.248;-0.546;2022-09-27T17:14:04;2.57;2.57;
62631;PMS5003;48703;51.248;-0.546;2022-09-27T17:17:05;3.03;3.03;
62631;PMS5003;48703;51.248;-0.546;2022-09-27T17:20:07;3.30;2.53;
62631;PMS5003;48703;51.248;-0.546;2022-09-27T17:23:08;2.70;2.06;
62631;PMS5003;48703;51.248;-0.546;2022-09-27T17:26:14;2.66;2.66;
62631;PMS5003;48703;51.248;-0.546;2022-09-27T17:29:12;3.73;3.34;
62631;PMS5003;48703;51.248;-0.546;2022-09-27T17:32:13;4.47;3.70;
62631;PMS5003;48703;51.248;-0.546;2022-09-27T17:35:15;2.51;2.04;
62631;PMS5003;48703;51.248;-0.546;2022-09-27T17:38:16;3.88;3.28;
62631;PMS5003;48703;51.248;-0.546;2022-09-27T17:41:18;3.50;2.80;
62631;PMS5003;48703;51.248;-0.546;2022-09-27T17:44:19;4.32;3.45;
62631;PMS5003;48703;51.248;-0.546;2022-09-27T17:47:20;2.74;2.57;
62631;PMS5003;48703;51.248;-0.546;2022-09-27T17:50:22;4.16;3.30;
62631;PMS5003;48703;51.248;-0.546;2022-09-27T17:53:24;2.51;2.47;
62631;PMS5003;48703;51.248;-0.546;2022-09-27T17:56:25;4.03;4.03;
62631;PMS5003;48703;51.248;-0.546;2022-09-27T17:59:27;3.71;3.40;
62631;PMS5003;48703;51.248;-0.546;2022-09-27T18:02:28;2.67;2.67;
62631;PMS5003;48703;51.248;-0.546;2022-09-27T18:05:30;6.03;5.21;
62631;PMS5003;48703;51.248;-0.546;2022-09-27T18:08:32;4.89;3.10;
62631;PMS5003;48703;51.248;-0.546;2022-09-27T18:11:33;5.07;4.46;
62631;PMS5003;48703;51.248;-0.546;2022-09-27T18:14:34;5.51;4.36;
62631;PMS5003;48703;51.248;-0.546;2022-09-27T18:17:36;5.64;3.86;
62631;PMS5003;48703;51.248;-0.546;2022-09-27T18:20:38;3.70;2.97;
62631;PMS5003;48703;51.248;-0.546;2022-09-27T18:23:39;3.77;3.54;
62631;PMS5003;48703;51.248;-0.546;2022-09-27T18:26:41;4.09;3.57;
62631;PMS5003;48703;51.248;-0.546;2022-09-27T18:29:43;5.54;4.21;
62631;PMS5003;48703;51.248;-0.546;2022-09-27T18:32:44;3.84;3.84;
62631;PMS5003;48703;51.248;-0.546;2022-09-27T18:35:45;3.53;3.53;